sensor_id;sensor_type;location;lat;lon;timestamp;P1;durP1;ratioP1;P2;durP2;ratioP2
55003;SDS011;40900;52.710;6.438;2023-06-22T00:00:52;29.95;;;25.15;;
55003;SDS011;40900;52.710;6.438;2023-06-22T00:03:19;30.27;;;24.90;;
55003;SDS011;40900;52.710;6.438;2023-06-22T00:05:45;30.65;;;24.67;;
55003;SDS011;40900;52.710;6.438;2023-06-22T00:08:12;32.20;;;24.80;;
55003;SDS011;40900;52.710;6.438;2023-06-22T00:10:38;37.15;;;26.40;;
55003;SDS011;40900;52.710;6.438;2023-06-22T00:13:05;34.08;;;26.80;;
55003;SDS011;40900;52.710;6.438;2023-06-22T00:15:32;33.58;;;25.92;;
55003;SDS011;40900;52.710;6.438;2023-06-22T00:17:58;30.50;;;25.83;;
55003;SDS011;40900;52.710;6.438;2023-06-22T00:20:24;34.30;;;26.38;;
55003;SDS011;40900;52.710;6.438;2023-06-22T00:22:56;33.17;;;26.77;;
55003;SDS011;40900;52.710;6.438;2023-06-22T00:25:22;31.05;;;24.70;;
55003;SDS011;40900;52.710;6.438;2023-06-22T00:27:48;30.67;;;26.23;;
55003;SDS011;40900;52.710;6.438;2023-06-22T00:30:15;30.98;;;26.38;;
55003;SDS011;40900;52.710;6.438;2023-06-22T00:32:41;34.80;;;26.77;;
55003;SDS011;40900;52.710;6.438;2023-06-22T00:35:08;32.05;;;26.75;;
55003;SDS011;40900;52.710;6.438;2023-06-22T00:37:35;36.20;;;27.15;;
55003;SDS011;40900;52.710;6.438;2023-06-22T00:40:02;37.30;;;26.98;;
55003;SDS011;40900;52.710;6.438;2023-06-22T00:42:29;35.00;;;26.52;;
55003;SDS011;40900;52.710;6.438;2023-06-22T00:44:55;31.77;;;25.52;;
55003;SDS011;40900;52.710;6.438;2023-06-22T00:47:21;35.38;;;26.52;;
55003;SDS011;40900;52.710;6.438;2023-06-22T00:49:47;34.55;;;25.25;;
55003;SDS011;40900;52.710;6.438;2023-06-22T00:52:18;31.83;;;25.92;;
55003;SDS011;40900;52.710;6.438;2023-06-22T00:54:47;33.05;;;26.17;;
55003;SDS011;40900;52.710;6.438;2023-06-22T00:57:14;30.05;;;24.10;;
55003;SDS011;40900;52.710;6.438;2023-06-22T00:59:43;35.70;;;24.80;;
55003;SDS011;40900;52.710;6.438;2023-06-22T01:02:10;28.58;;;24.70;;
55003;SDS011;40900;52.710;6.438;2023-06-22T01:04:36;35.70;;;25.63;;
55003;SDS011;40900;52.710;6.438;2023-06-22T01:09:58;29.60;;;22.20;;
55003;SDS011;40900;52.710;6.438;2023-06-22T01:12:34;26.43;;;21.37;;
55003;SDS011;40900;52.710;6.438;2023-06-22T01:17:58;25.43;;;22.70;;
55003;SDS011;40900;52.710;6.438;2023-06-22T01:20:25;33.40;;;26.50;;
55003;SDS011;40900;52.710;6.438;2023-06-22T01:26:02;38.30;;;28.60;;
55003;SDS011;40900;52.710;6.438;2023-06-22T01:28:46;33.38;;;29.85;;
55003;SDS011;40900;52.710;6.438;2023-06-22T01:31:15;40.70;;;29.85;;
55003;SDS011;40900;52.710;6.438;2023-06-22T01:33:43;33.67;;;30.08;;
55003;SDS011;40900;52.710;6.438;2023-06-22T01:36:11;36.28;;;31.33;;
55003;SDS011;40900;52.710;6.438;2023-06-22T01:38:39;36.22;;;30.33;;
55003;SDS011;40900;52.710;6.438;2023-06-22T01:41:07;37.85;;;29.77;;
55003;SDS011;40900;52.710;6.438;2023-06-22T01:43:33;37.72;;;31.48;;
55003;SDS011;40900;52.710;6.438;2023-06-22T01:46:01;36.38;;;31.08;;
55003;SDS011;40900;52.710;6.438;2023-06-22T01:48:27;37.95;;;31.05;;
55003;SDS011;40900;52.710;6.438;2023-06-22T01:50:54;37.80;;;30.67;;
55003;SDS011;40900;52.710;6.438;2023-06-22T01:53:23;35.20;;;31.15;;
55003;SDS011;40900;52.710;6.438;2023-06-22T01:55:49;37.17;;;31.20;;
55003;SDS011;40900;52.710;6.438;2023-06-22T01:58:15;35.67;;;30.85;;
55003;SDS011;40900;52.710;6.438;2023-06-22T02:00:44;33.33;;;29.77;;
55003;SDS011;40900;52.710;6.438;2023-06-22T02:03:19;35.70;;;30.50;;
55003;SDS011;40900;52.710;6.438;2023-06-22T02:06:05;32.60;;;29.10;;
55003;SDS011;40900;52.710;6.438;2023-06-22T02:08:40;36.90;;;32.38;;
55003;SDS011;40900;52.710;6.438;2023-06-22T02:11:10;37.28;;;33.28;;
55003;SDS011;40900;52.710;6.438;2023-06-22T02:13:38;41.20;;;33.88;;
55003;SDS011;40900;52.710;6.438;2023-06-22T02:16:08;41.05;;;33.38;;
55003;SDS011;40900;52.710;6.438;2023-06-22T02:18:38;37.22;;;33.15;;
55003;SDS011;40900;52.710;6.438;2023-06-22T02:21:05;42.42;;;33.88;;
55003;SDS011;40900;52.710;6.438;2023-06-22T02:23:32;39.15;;;32.30;;
55003;SDS011;40900;52.710;6.438;2023-06-22T02:26:01;40.45;;;34.10;;
55003;SDS011;40900;52.710;6.438;2023-06-22T02:28:28;35.65;;;30.50;;
55003;SDS011;40900;52.710;6.438;2023-06-22T02:30:53;40.83;;;33.30;;
55003;SDS011;40900;52.710;6.438;2023-06-22T02:33:19;36.80;;;32.80;;
55003;SDS011;40900;52.710;6.438;2023-06-22T02:35:45;41.20;;;33.83;;
55003;SDS011;40900;52.710;6.438;2023-06-22T02:38:14;42.03;;;33.63;;
55003;SDS011;40900;52.710;6.438;2023-06-22T02:40:40;39.28;;;34.80;;
55003;SDS011;40900;52.710;6.438;2023-06-22T02:43:06;37.75;;;33.60;;
55003;SDS011;40900;52.710;6.438;2023-06-22T02:45:31;36.92;;;31.98;;
55003;SDS011;40900;52.710;6.438;2023-06-22T02:47:57;35.97;;;32.10;;
55003;SDS011;40900;52.710;6.438;2023-06-22T02:50:23;29.98;;;26.88;;
55003;SDS011;40900;52.710;6.438;2023-06-22T02:52:49;30.17;;;27.02;;
55003;SDS011;40900;52.710;6.438;2023-06-22T02:55:15;34.65;;;30.40;;
55003;SDS011;40900;52.710;6.438;2023-06-22T02:57:40;33.83;;;30.13;;
55003;SDS011;40900;52.710;6.438;2023-06-22T03:00:09;34.22;;;29.85;;
55003;SDS011;40900;52.710;6.438;2023-06-22T03:02:45;44.42;;;35.95;;
55003;SDS011;40900;52.710;6.438;2023-06-22T03:05:13;40.33;;;35.30;;
55003;SDS011;40900;52.710;6.438;2023-06-22T03:07:42;46.33;;;37.47;;
55003;SDS011;40900;52.710;6.438;2023-06-22T03:10:09;42.00;;;36.45;;
55003;SDS011;40900;52.710;6.438;2023-06-22T03:12:39;44.20;;;36.45;;
55003;SDS011;40900;52.710;6.438;2023-06-22T03:15:06;41.72;;;37.22;;
55003;SDS011;40900;52.710;6.438;2023-06-22T03:17:33;45.38;;;37.35;;
55003;SDS011;40900;52.710;6.438;2023-06-22T03:20:00;44.83;;;37.78;;
55003;SDS011;40900;52.710;6.438;2023-06-22T03:22:26;44.38;;;36.90;;
55003;SDS011;40900;52.710;6.438;2023-06-22T03:24:53;44.38;;;37.75;;
55003;SDS011;40900;52.710;6.438;2023-06-22T03:27:19;42.00;;;36.22;;
55003;SDS011;40900;52.710;6.438;2023-06-22T03:29:44;43.72;;;37.70;;
55003;SDS011;40900;52.710;6.438;2023-06-22T03:32:10;43.97;;;37.17;;
55003;SDS011;40900;52.710;6.438;2023-06-22T03:34:36;42.28;;;37.60;;
55003;SDS011;40900;52.710;6.438;2023-06-22T03:37:02;47.08;;;38.90;;
55003;SDS011;40900;52.710;6.438;2023-06-22T03:39:28;44.22;;;39.20;;
55003;SDS011;40900;52.710;6.438;2023-06-22T03:41:53;45.55;;;38.35;;
55003;SDS011;40900;52.710;6.438;2023-06-22T03:44:19;43.50;;;37.50;;
55003;SDS011;40900;52.710;6.438;2023-06-22T03:46:45;41.25;;;36.60;;
55003;SDS011;40900;52.710;6.438;2023-06-22T03:49:11;44.40;;;38.55;;
55003;SDS011;40900;52.710;6.438;2023-06-22T03:51:36;42.20;;;37.67;;
55003;SDS011;40900;52.710;6.438;2023-06-22T03:54:02;45.13;;;37.13;;
55003;SDS011;40900;52.710;6.438;2023-06-22T03:56:28;45.45;;;38.03;;
55003;SDS011;40900;52.710;6.438;2023-06-22T03:58:53;46.72;;;38.95;;
55003;SDS011;40900;52.710;6.438;2023-06-22T04:01:19;44.20;;;37.70;;
55003;SDS011;40900;52.710;6.438;2023-06-22T04:03:45;41.35;;;37.05;;
55003;SDS011;40900;52.710;6.438;2023-06-22T04:06:13;48.60;;;39.85;;
55003;SDS011;40900;52.710;6.438;2023-06-22T04:08:39;46.08;;;38.97;;
55003;SDS011;40900;52.710;6.438;2023-06-22T04:11:05;42.85;;;38.25;;
55003;SDS011;40900;52.710;6.438;2023-06-22T04:13:31;44.70;;;39.50;;
55003;SDS011;40900;52.710;6.438;2023-06-22T04:15:57;45.53;;;40.22;;
55003;SDS011;40900;52.710;6.438;2023-06-22T04:18:23;48.15;;;41.83;;
55003;SDS011;40900;52.710;6.438;2023-06-22T04:20:49;47.47;;;40.22;;
55003;SDS011;40900;52.710;6.438;2023-06-22T04:23:14;50.13;;;40.55;;
55003;SDS011;40900;52.710;6.438;2023-06-22T04:25:40;43.67;;;38.40;;
55003;SDS011;40900;52.710;6.438;2023-06-22T04:28:06;52.22;;;42.45;;
55003;SDS011;40900;52.710;6.438;2023-06-22T04:30:37;45.78;;;39.78;;
55003;SDS011;40900;52.710;6.438;2023-06-22T04:33:11;45.13;;;39.47;;
55003;SDS011;40900;52.710;6.438;2023-06-22T04:35:38;45.88;;;40.55;;
55003;SDS011;40900;52.710;6.438;2023-06-22T04:38:06;41.83;;;37.28;;
55003;SDS011;40900;52.710;6.438;2023-06-22T04:40:32;47.92;;;41.42;;
55003;SDS011;40900;52.710;6.438;2023-06-22T04:42:58;50.38;;;42.63;;
55003;SDS011;40900;52.710;6.438;2023-06-22T04:45:27;48.53;;;42.55;;
55003;SDS011;40900;52.710;6.438;2023-06-22T04:47:56;51.72;;;41.95;;
55003;SDS011;40900;52.710;6.438;2023-06-22T04:50:22;49.58;;;43.63;;
55003;SDS011;40900;52.710;6.438;2023-06-22T04:52:49;50.63;;;43.33;;
55003;SDS011;40900;52.710;6.438;2023-06-22T04:55:15;49.10;;;42.92;;
55003;SDS011;40900;52.710;6.438;2023-06-22T04:57:47;46.42;;;40.42;;
55003;SDS011;40900;52.710;6.438;2023-06-22T05:00:14;49.55;;;42.92;;
55003;SDS011;40900;52.710;6.438;2023-06-22T05:02:44;49.20;;;41.22;;
55003;SDS011;40900;52.710;6.438;2023-06-22T05:05:11;45.65;;;38.65;;
55003;SDS011;40900;52.710;6.438;2023-06-22T05:07:39;48.25;;;39.88;;
55003;SDS011;40900;52.710;6.438;2023-06-22T05:10:08;43.85;;;38.75;;
55003;SDS011;40900;52.710;6.438;2023-06-22T05:12:36;44.83;;;37.25;;
55003;SDS011;40900;52.710;6.438;2023-06-22T05:15:02;42.58;;;36.17;;
55003;SDS011;40900;52.710;6.438;2023-06-22T05:17:27;43.63;;;36.17;;
55003;SDS011;40900;52.710;6.438;2023-06-22T05:19:53;40.05;;;34.55;;
55003;SDS011;40900;52.710;6.438;2023-06-22T05:22:20;44.72;;;37.10;;
55003;SDS011;40900;52.710;6.438;2023-06-22T05:24:46;40.90;;;34.50;;
55003;SDS011;40900;52.710;6.438;2023-06-22T05:27:12;42.05;;;37.45;;
55003;SDS011;40900;52.710;6.438;2023-06-22T05:29:38;41.20;;;36.20;;
55003;SDS011;40900;52.710;6.438;2023-06-22T05:32:05;42.42;;;36.60;;
55003;SDS011;40900;52.710;6.438;2023-06-22T05:34:31;44.20;;;37.47;;
55003;SDS011;40900;52.710;6.438;2023-06-22T05:36:57;42.55;;;37.00;;
55003;SDS011;40900;52.710;6.438;2023-06-22T05:39:26;39.97;;;35.40;;
55003;SDS011;40900;52.710;6.438;2023-06-22T05:41:51;40.45;;;35.60;;
55003;SDS011;40900;52.710;6.438;2023-06-22T05:44:18;40.67;;;34.05;;
55003;SDS011;40900;52.710;6.438;2023-06-22T05:46:44;36.03;;;31.23;;
55003;SDS011;40900;52.710;6.438;2023-06-22T05:49:11;37.90;;;32.70;;
55003;SDS011;40900;52.710;6.438;2023-06-22T05:51:41;40.55;;;32.08;;
55003;SDS011;40900;52.710;6.438;2023-06-22T05:54:07;35.10;;;31.25;;
55003;SDS011;40900;52.710;6.438;2023-06-22T05:56:33;33.63;;;29.48;;
55003;SDS011;40900;52.710;6.438;2023-06-22T05:58:59;40.38;;;32.22;;
55003;SDS011;40900;52.710;6.438;2023-06-22T06:01:25;34.17;;;30.48;;
55003;SDS011;40900;52.710;6.438;2023-06-22T06:03:59;32.28;;;28.65;;
55003;SDS011;40900;52.710;6.438;2023-06-22T06:06:25;33.60;;;28.95;;
55003;SDS011;40900;52.710;6.438;2023-06-22T06:08:53;34.75;;;29.70;;
55003;SDS011;40900;52.710;6.438;2023-06-22T06:11:20;35.88;;;27.30;;
55003;SDS011;40900;52.710;6.438;2023-06-22T06:13:46;31.65;;;28.17;;
55003;SDS011;40900;52.710;6.438;2023-06-22T06:16:12;28.48;;;25.40;;
55003;SDS011;40900;52.710;6.438;2023-06-22T06:18:38;33.90;;;26.65;;
55003;SDS011;40900;52.710;6.438;2023-06-22T06:21:04;31.13;;;25.00;;
55003;SDS011;40900;52.710;6.438;2023-06-22T06:23:29;27.60;;;24.40;;
55003;SDS011;40900;52.710;6.438;2023-06-22T06:25:55;26.70;;;23.27;;
55003;SDS011;40900;52.710;6.438;2023-06-22T06:28:21;24.58;;;21.98;;
55003;SDS011;40900;52.710;6.438;2023-06-22T06:30:47;25.45;;;22.58;;
55003;SDS011;40900;52.710;6.438;2023-06-22T06:33:13;25.17;;;22.02;;
55003;SDS011;40900;52.710;6.438;2023-06-22T06:35:39;26.45;;;20.92;;
55003;SDS011;40900;52.710;6.438;2023-06-22T06:38:04;23.20;;;20.65;;
55003;SDS011;40900;52.710;6.438;2023-06-22T06:40:30;24.23;;;21.17;;
55003;SDS011;40900;52.710;6.438;2023-06-22T06:42:56;24.45;;;21.17;;
55003;SDS011;40900;52.710;6.438;2023-06-22T06:45:22;25.23;;;20.80;;
55003;SDS011;40900;52.710;6.438;2023-06-22T06:47:49;24.20;;;21.58;;
55003;SDS011;40900;52.710;6.438;2023-06-22T06:50:16;26.52;;;19.75;;
55003;SDS011;40900;52.710;6.438;2023-06-22T06:52:42;22.15;;;19.55;;
55003;SDS011;40900;52.710;6.438;2023-06-22T06:55:08;21.67;;;19.38;;
55003;SDS011;40900;52.710;6.438;2023-06-22T06:57:40;22.02;;;19.65;;
55003;SDS011;40900;52.710;6.438;2023-06-22T07:00:10;20.30;;;18.20;;
55003;SDS011;40900;52.710;6.438;2023-06-22T07:02:40;22.80;;;17.85;;
55003;SDS011;40900;52.710;6.438;2023-06-22T07:05:08;19.83;;;17.83;;
55003;SDS011;40900;52.710;6.438;2023-06-22T07:07:37;19.42;;;17.20;;
55003;SDS011;40900;52.710;6.438;2023-06-22T07:10:04;23.75;;;19.25;;
55003;SDS011;40900;52.710;6.438;2023-06-22T07:12:31;18.13;;;16.20;;
55003;SDS011;40900;52.710;6.438;2023-06-22T07:15:06;18.40;;;14.63;;
55003;SDS011;40900;52.710;6.438;2023-06-22T07:17:34;16.70;;;13.68;;
55003;SDS011;40900;52.710;6.438;2023-06-22T07:20:00;16.40;;;14.15;;
55003;SDS011;40900;52.710;6.438;2023-06-22T07:22:27;17.10;;;13.65;;
55003;SDS011;40900;52.710;6.438;2023-06-22T07:24:53;14.63;;;12.30;;
55003;SDS011;40900;52.710;6.438;2023-06-22T07:27:18;16.67;;;13.07;;
55003;SDS011;40900;52.710;6.438;2023-06-22T07:29:45;16.15;;;13.05;;
55003;SDS011;40900;52.710;6.438;2023-06-22T07:32:10;15.90;;;12.85;;
55003;SDS011;40900;52.710;6.438;2023-06-22T07:34:36;15.70;;;12.85;;
55003;SDS011;40900;52.710;6.438;2023-06-22T07:37:02;15.45;;;12.85;;
55003;SDS011;40900;52.710;6.438;2023-06-22T07:39:29;15.45;;;13.20;;
55003;SDS011;40900;52.710;6.438;2023-06-22T07:41:55;16.52;;;11.60;;
55003;SDS011;40900;52.710;6.438;2023-06-22T07:44:21;17.90;;;12.50;;
55003;SDS011;40900;52.710;6.438;2023-06-22T07:46:46;13.23;;;11.05;;
55003;SDS011;40900;52.710;6.438;2023-06-22T07:49:12;15.70;;;11.73;;
55003;SDS011;40900;52.710;6.438;2023-06-22T07:51:38;14.43;;;11.43;;
55003;SDS011;40900;52.710;6.438;2023-06-22T07:54:04;12.93;;;10.25;;
55003;SDS011;40900;52.710;6.438;2023-06-22T07:56:29;12.60;;;10.20;;
55003;SDS011;40900;52.710;6.438;2023-06-22T07:58:55;13.75;;;10.38;;
55003;SDS011;40900;52.710;6.438;2023-06-22T08:01:23;15.88;;;10.98;;
55003;SDS011;40900;52.710;6.438;2023-06-22T08:03:49;12.95;;;11.38;;
55003;SDS011;40900;52.710;6.438;2023-06-22T08:06:15;11.55;;;9.63;;
55003;SDS011;40900;52.710;6.438;2023-06-22T08:08:41;10.27;;;9.18;;
55003;SDS011;40900;52.710;6.438;2023-06-22T08:11:08;12.90;;;9.30;;
55003;SDS011;40900;52.710;6.438;2023-06-22T08:13:34;12.05;;;9.35;;
55003;SDS011;40900;52.710;6.438;2023-06-22T08:16:00;11.93;;;8.50;;
55003;SDS011;40900;52.710;6.438;2023-06-22T08:18:26;12.43;;;8.57;;
55003;SDS011;40900;52.710;6.438;2023-06-22T08:20:52;13.57;;;8.93;;
55003;SDS011;40900;52.710;6.438;2023-06-22T08:23:17;9.02;;;7.35;;
55003;SDS011;40900;52.710;6.438;2023-06-22T08:25:43;12.02;;;8.75;;
55003;SDS011;40900;52.710;6.438;2023-06-22T08:28:09;9.20;;;7.95;;
55003;SDS011;40900;52.710;6.438;2023-06-22T08:30:35;10.18;;;7.97;;
55003;SDS011;40900;52.710;6.438;2023-06-22T08:33:00;11.85;;;8.52;;
55003;SDS011;40900;52.710;6.438;2023-06-22T08:35:26;10.63;;;8.27;;
55003;SDS011;40900;52.710;6.438;2023-06-22T08:37:52;10.80;;;7.88;;
55003;SDS011;40900;52.710;6.438;2023-06-22T08:40:19;10.82;;;7.85;;
55003;SDS011;40900;52.710;6.438;2023-06-22T08:42:45;10.73;;;7.68;;
55003;SDS011;40900;52.710;6.438;2023-06-22T08:45:11;9.20;;;7.22;;
55003;SDS011;40900;52.710;6.438;2023-06-22T08:47:38;9.18;;;6.68;;
55003;SDS011;40900;52.710;6.438;2023-06-22T08:50:05;10.88;;;7.55;;
55003;SDS011;40900;52.710;6.438;2023-06-22T08:52:31;12.40;;;7.78;;
55003;SDS011;40900;52.710;6.438;2023-06-22T08:54:57;10.73;;;6.80;;
55003;SDS011;40900;52.710;6.438;2023-06-22T08:57:26;10.95;;;7.32;;
55003;SDS011;40900;52.710;6.438;2023-06-22T08:59:52;10.10;;;7.40;;
55003;SDS011;40900;52.710;6.438;2023-06-22T09:02:18;8.18;;;7.00;;
55003;SDS011;40900;52.710;6.438;2023-06-22T09:04:45;10.25;;;7.00;;
55003;SDS011;40900;52.710;6.438;2023-06-22T09:07:11;8.13;;;6.65;;
55003;SDS011;40900;52.710;6.438;2023-06-22T09:09:37;8.45;;;6.47;;
55003;SDS011;40900;52.710;6.438;2023-06-22T09:12:03;8.27;;;7.40;;
55003;SDS011;40900;52.710;6.438;2023-06-22T09:14:29;9.65;;;7.22;;
55003;SDS011;40900;52.710;6.438;2023-06-22T09:16:55;9.23;;;6.47;;
55003;SDS011;40900;52.710;6.438;2023-06-22T09:19:21;7.03;;;6.25;;
55003;SDS011;40900;52.710;6.438;2023-06-22T09:21:46;9.30;;;5.95;;
55003;SDS011;40900;52.710;6.438;2023-06-22T09:24:12;11.38;;;6.53;;
55003;SDS011;40900;52.710;6.438;2023-06-22T09:26:38;8.43;;;5.95;;
55003;SDS011;40900;52.710;6.438;2023-06-22T09:29:07;8.00;;;6.38;;
55003;SDS011;40900;52.710;6.438;2023-06-22T09:31:35;8.43;;;6.95;;
55003;SDS011;40900;52.710;6.438;2023-06-22T09:34:01;9.57;;;5.97;;
55003;SDS011;40900;52.710;6.438;2023-06-22T09:36:27;7.72;;;6.10;;
55003;SDS011;40900;52.710;6.438;2023-06-22T09:38:52;8.48;;;6.13;;
55003;SDS011;40900;52.710;6.438;2023-06-22T09:41:20;10.00;;;6.20;;
55003;SDS011;40900;52.710;6.438;2023-06-22T09:43:47;10.18;;;5.80;;
55003;SDS011;40900;52.710;6.438;2023-06-22T09:46:14;9.65;;;5.70;;
55003;SDS011;40900;52.710;6.438;2023-06-22T09:48:40;14.18;;;5.93;;
55003;SDS011;40900;52.710;6.438;2023-06-22T09:51:06;6.78;;;5.97;;
55003;SDS011;40900;52.710;6.438;2023-06-22T09:53:32;11.40;;;6.30;;
55003;SDS011;40900;52.710;6.438;2023-06-22T09:55:59;7.50;;;5.60;;
55003;SDS011;40900;52.710;6.438;2023-06-22T09:58:26;9.52;;;6.32;;
55003;SDS011;40900;52.710;6.438;2023-06-22T10:00:52;6.63;;;5.45;;
55003;SDS011;40900;52.710;6.438;2023-06-22T10:03:19;7.43;;;6.45;;
55003;SDS011;40900;52.710;6.438;2023-06-22T10:05:46;7.97;;;5.15;;
55003;SDS011;40900;52.710;6.438;2023-06-22T10:08:11;7.57;;;5.20;;
55003;SDS011;40900;52.710;6.438;2023-06-22T10:10:38;9.10;;;6.43;;
55003;SDS011;40900;52.710;6.438;2023-06-22T10:13:08;5.88;;;5.13;;
55003;SDS011;40900;52.710;6.438;2023-06-22T10:15:38;8.23;;;5.70;;
55003;SDS011;40900;52.710;6.438;2023-06-22T10:18:04;7.70;;;5.10;;
55003;SDS011;40900;52.710;6.438;2023-06-22T10:20:29;9.30;;;5.63;;
55003;SDS011;40900;52.710;6.438;2023-06-22T10:22:55;8.93;;;5.70;;
55003;SDS011;40900;52.710;6.438;2023-06-22T10:25:21;7.25;;;5.30;;
55003;SDS011;40900;52.710;6.438;2023-06-22T10:27:47;6.82;;;5.60;;
55003;SDS011;40900;52.710;6.438;2023-06-22T10:30:14;6.65;;;5.15;;
55003;SDS011;40900;52.710;6.438;2023-06-22T10:32:43;6.88;;;5.25;;
55003;SDS011;40900;52.710;6.438;2023-06-22T10:35:09;7.93;;;6.07;;
55003;SDS011;40900;52.710;6.438;2023-06-22T10:37:38;7.10;;;5.30;;
55003;SDS011;40900;52.710;6.438;2023-06-22T10:40:04;7.32;;;5.45;;
55003;SDS011;40900;52.710;6.438;2023-06-22T10:42:30;5.40;;;4.45;;
55003;SDS011;40900;52.710;6.438;2023-06-22T10:44:56;6.63;;;5.00;;
55003;SDS011;40900;52.710;6.438;2023-06-22T10:47:22;7.63;;;4.78;;
55003;SDS011;40900;52.710;6.438;2023-06-22T10:49:47;6.15;;;5.10;;
55003;SDS011;40900;52.710;6.438;2023-06-22T10:52:13;8.07;;;5.80;;
55003;SDS011;40900;52.710;6.438;2023-06-22T10:54:39;7.65;;;4.97;;
55003;SDS011;40900;52.710;6.438;2023-06-22T10:57:05;7.13;;;5.55;;
55003;SDS011;40900;52.710;6.438;2023-06-22T10:59:31;7.63;;;5.88;;
55003;SDS011;40900;52.710;6.438;2023-06-22T11:01:56;9.65;;;4.45;;
55003;SDS011;40900;52.710;6.438;2023-06-22T11:04:23;6.53;;;5.18;;
55003;SDS011;40900;52.710;6.438;2023-06-22T11:06:49;8.13;;;5.45;;
55003;SDS011;40900;52.710;6.438;2023-06-22T11:09:15;8.25;;;5.35;;
55003;SDS011;40900;52.710;6.438;2023-06-22T11:11:47;7.72;;;4.60;;
55003;SDS011;40900;52.710;6.438;2023-06-22T11:14:14;6.63;;;5.22;;
55003;SDS011;40900;52.710;6.438;2023-06-22T11:16:40;7.32;;;4.50;;
55003;SDS011;40900;52.710;6.438;2023-06-22T11:19:06;4.80;;;4.30;;
55003;SDS011;40900;52.710;6.438;2023-06-22T11:21:32;7.53;;;5.60;;
55003;SDS011;40900;52.710;6.438;2023-06-22T11:23:58;7.18;;;5.20;;
55003;SDS011;40900;52.710;6.438;2023-06-22T11:26:24;8.55;;;5.00;;
55003;SDS011;40900;52.710;6.438;2023-06-22T11:28:52;6.68;;;4.45;;
55003;SDS011;40900;52.710;6.438;2023-06-22T11:31:18;6.90;;;4.45;;
55003;SDS011;40900;52.710;6.438;2023-06-22T11:33:44;6.50;;;5.38;;
55003;SDS011;40900;52.710;6.438;2023-06-22T11:36:11;8.23;;;4.90;;
55003;SDS011;40900;52.710;6.438;2023-06-22T11:38:37;5.70;;;4.55;;
55003;SDS011;40900;52.710;6.438;2023-06-22T11:41:05;8.48;;;5.15;;
55003;SDS011;40900;52.710;6.438;2023-06-22T11:43:31;7.50;;;5.15;;
55003;SDS011;40900;52.710;6.438;2023-06-22T11:45:57;9.15;;;5.20;;
55003;SDS011;40900;52.710;6.438;2023-06-22T11:48:26;6.05;;;4.57;;
55003;SDS011;40900;52.710;6.438;2023-06-22T11:50:52;5.38;;;4.88;;
55003;SDS011;40900;52.710;6.438;2023-06-22T11:53:19;8.63;;;5.20;;
55003;SDS011;40900;52.710;6.438;2023-06-22T11:55:45;9.75;;;5.43;;
55003;SDS011;40900;52.710;6.438;2023-06-22T11:58:11;7.40;;;5.85;;
55003;SDS011;40900;52.710;6.438;2023-06-22T12:00:37;6.85;;;5.18;;
55003;SDS011;40900;52.710;6.438;2023-06-22T12:03:03;9.20;;;5.35;;
55003;SDS011;40900;52.710;6.438;2023-06-22T12:05:29;8.77;;;4.78;;
55003;SDS011;40900;52.710;6.438;2023-06-22T12:07:54;10.32;;;5.40;;
55003;SDS011;40900;52.710;6.438;2023-06-22T12:10:21;8.45;;;5.25;;
55003;SDS011;40900;52.710;6.438;2023-06-22T12:12:47;8.95;;;5.63;;
55003;SDS011;40900;52.710;6.438;2023-06-22T12:15:13;5.32;;;4.78;;
55003;SDS011;40900;52.710;6.438;2023-06-22T12:17:39;6.47;;;4.28;;
55003;SDS011;40900;52.710;6.438;2023-06-22T12:20:06;7.13;;;5.10;;
55003;SDS011;40900;52.710;6.438;2023-06-22T12:22:33;9.52;;;5.68;;
55003;SDS011;40900;52.710;6.438;2023-06-22T12:24:59;5.43;;;4.93;;
55003;SDS011;40900;52.710;6.438;2023-06-22T12:27:24;7.70;;;5.68;;
55003;SDS011;40900;52.710;6.438;2023-06-22T12:29:51;10.27;;;6.97;;
55003;SDS011;40900;52.710;6.438;2023-06-22T12:32:17;11.07;;;6.35;;
55003;SDS011;40900;52.710;6.438;2023-06-22T12:34:43;8.25;;;6.47;;
55003;SDS011;40900;52.710;6.438;2023-06-22T12:37:09;8.38;;;6.40;;
55003;SDS011;40900;52.710;6.438;2023-06-22T12:39:34;9.38;;;6.38;;
55003;SDS011;40900;52.710;6.438;2023-06-22T12:42:00;12.68;;;6.55;;
55003;SDS011;40900;52.710;6.438;2023-06-22T12:44:26;8.90;;;6.18;;
55003;SDS011;40900;52.710;6.438;2023-06-22T12:46:52;9.90;;;7.65;;
55003;SDS011;40900;52.710;6.438;2023-06-22T12:49:18;8.77;;;7.72;;
55003;SDS011;40900;52.710;6.438;2023-06-22T12:51:44;9.20;;;7.18;;
55003;SDS011;40900;52.710;6.438;2023-06-22T12:54:10;10.38;;;6.65;;
55003;SDS011;40900;52.710;6.438;2023-06-22T12:56:37;11.98;;;6.78;;
55003;SDS011;40900;52.710;6.438;2023-06-22T12:59:03;8.82;;;7.00;;
55003;SDS011;40900;52.710;6.438;2023-06-22T13:01:30;9.52;;;7.85;;
55003;SDS011;40900;52.710;6.438;2023-06-22T13:03:57;12.90;;;7.40;;
55003;SDS011;40900;52.710;6.438;2023-06-22T13:06:23;9.45;;;7.35;;
55003;SDS011;40900;52.710;6.438;2023-06-22T13:08:49;11.27;;;7.82;;
55003;SDS011;40900;52.710;6.438;2023-06-22T13:11:15;8.70;;;7.30;;
55003;SDS011;40900;52.710;6.438;2023-06-22T13:13:40;8.50;;;6.63;;
55003;SDS011;40900;52.710;6.438;2023-06-22T13:16:06;9.63;;;7.93;;
55003;SDS011;40900;52.710;6.438;2023-06-22T13:18:32;7.38;;;6.65;;
55003;SDS011;40900;52.710;6.438;2023-06-22T13:21:01;10.48;;;7.78;;
55003;SDS011;40900;52.710;6.438;2023-06-22T13:23:27;11.23;;;7.35;;
55003;SDS011;40900;52.710;6.438;2023-06-22T13:25:52;7.25;;;6.20;;
55003;SDS011;40900;52.710;6.438;2023-06-22T13:28:18;6.80;;;5.97;;
55003;SDS011;40900;52.710;6.438;2023-06-22T13:30:45;7.70;;;5.57;;
55003;SDS011;40900;52.710;6.438;2023-06-22T13:33:12;10.63;;;6.43;;
55003;SDS011;40900;52.710;6.438;2023-06-22T13:35:41;7.10;;;6.00;;
55003;SDS011;40900;52.710;6.438;2023-06-22T13:38:08;8.57;;;6.50;;
55003;SDS011;40900;52.710;6.438;2023-06-22T13:40:34;8.80;;;6.07;;
55003;SDS011;40900;52.710;6.438;2023-06-22T13:43:01;10.68;;;7.07;;
55003;SDS011;40900;52.710;6.438;2023-06-22T13:45:27;7.28;;;5.95;;
55003;SDS011;40900;52.710;6.438;2023-06-22T13:47:52;8.70;;;6.15;;
55003;SDS011;40900;52.710;6.438;2023-06-22T13:50:18;9.63;;;7.13;;
55003;SDS011;40900;52.710;6.438;2023-06-22T13:52:44;7.53;;;6.78;;
55003;SDS011;40900;52.710;6.438;2023-06-22T13:55:10;9.93;;;6.93;;
55003;SDS011;40900;52.710;6.438;2023-06-22T13:57:36;10.73;;;6.60;;
55003;SDS011;40900;52.710;6.438;2023-06-22T14:00:03;9.20;;;6.60;;
55003;SDS011;40900;52.710;6.438;2023-06-22T14:02:33;9.13;;;6.68;;
55003;SDS011;40900;52.710;6.438;2023-06-22T14:04:59;12.15;;;6.03;;
55003;SDS011;40900;52.710;6.438;2023-06-22T14:07:25;8.75;;;6.40;;
55003;SDS011;40900;52.710;6.438;2023-06-22T14:09:50;7.10;;;5.82;;
55003;SDS011;40900;52.710;6.438;2023-06-22T14:12:16;8.90;;;5.97;;
55003;SDS011;40900;52.710;6.438;2023-06-22T14:14:45;7.97;;;5.82;;
55003;SDS011;40900;52.710;6.438;2023-06-22T14:17:10;8.00;;;5.82;;
55003;SDS011;40900;52.710;6.438;2023-06-22T14:19:36;10.15;;;5.88;;
55003;SDS011;40900;52.710;6.438;2023-06-22T14:22:02;9.63;;;6.50;;
55003;SDS011;40900;52.710;6.438;2023-06-22T14:24:28;8.88;;;6.28;;
55003;SDS011;40900;52.710;6.438;2023-06-22T14:26:54;10.30;;;6.57;;
55003;SDS011;40900;52.710;6.438;2023-06-22T14:29:20;9.65;;;7.07;;
55003;SDS011;40900;52.710;6.438;2023-06-22T14:31:47;12.00;;;7.43;;
55003;SDS011;40900;52.710;6.438;2023-06-22T14:34:13;12.38;;;7.63;;
55003;SDS011;40900;52.710;6.438;2023-06-22T14:36:40;11.63;;;8.10;;